createdAt,value
2018-12-08T00:01:31.794Z,98931.00
2018-12-08T00:04:00.010Z,98925.00
2018-12-08T00:06:28.225Z,98920.00
2018-12-08T00:08:56.525Z,98910.00
2018-12-08T00:11:24.841Z,98904.00
2018-12-08T00:13:53.037Z,98897.00
2018-12-08T00:16:21.355Z,98895.00
2018-12-08T00:18:49.549Z,98902.00
2018-12-08T00:21:17.852Z,98896.00
2018-12-08T00:23:46.018Z,98891.00
2018-12-08T00:26:14.354Z,98900.00
2018-12-08T00:28:42.548Z,98905.00
2018-12-08T00:31:28.821Z,98897.00
2018-12-08T00:33:57.105Z,98905.00
2018-12-08T00:36:25.381Z,98910.00
2018-12-08T00:38:53.649Z,98907.00
2018-12-08T00:41:21.925Z,98900.00
2018-12-08T00:43:50.835Z,98910.00
2018-12-08T00:46:19.060Z,98896.00
2018-12-08T00:48:47.262Z,98903.00
2018-12-08T00:51:15.532Z,98907.00
2018-12-08T00:53:43.821Z,98909.00
2018-12-08T00:56:12.078Z,98914.00
2018-12-08T00:58:40.277Z,98915.00
2018-12-08T01:01:08.437Z,98909.00
2018-12-08T01:03:36.688Z,98911.00
2018-12-08T01:06:04.875Z,98915.00
2018-12-08T01:08:33.035Z,98905.00
2018-12-08T01:11:01.234Z,98901.00
2018-12-08T01:13:29.486Z,98909.00
2018-12-08T01:15:57.797Z,98905.00
2018-12-08T01:18:26.065Z,98904.00
2018-12-08T01:20:54.227Z,98902.00
2018-12-08T01:23:22.401Z,98902.00
2018-12-08T01:25:50.670Z,98910.00
2018-12-08T01:28:18.961Z,98903.00
2018-12-08T01:30:47.242Z,98903.00
2018-12-08T01:33:16.108Z,98890.00
2018-12-08T01:35:44.300Z,98895.00
2018-12-08T01:38:12.575Z,98888.00
2018-12-08T01:40:40.743Z,98886.00
2018-12-08T01:43:09.030Z,98882.00
2018-12-08T01:45:37.227Z,98872.00
2018-12-08T01:48:05.464Z,98870.00
2018-12-08T01:50:33.696Z,98879.00
2018-12-08T01:53:02.034Z,98878.00
2018-12-08T01:55:30.199Z,98882.00
2018-12-08T01:57:58.370Z,98885.00
2018-12-08T02:00:26.649Z,98885.00
2018-12-08T02:02:54.906Z,98890.00
2018-12-08T02:05:23.192Z,98901.00
2018-12-08T02:07:51.475Z,98904.00
2018-12-08T02:10:19.748Z,98897.00
2018-12-08T02:12:47.915Z,98894.00
2018-12-08T02:15:16.195Z,98885.00
2018-12-08T02:17:44.472Z,98876.00
2018-12-08T02:20:12.749Z,98887.00
2018-12-08T02:22:41.020Z,98892.00
2018-12-08T02:25:09.212Z,98887.00
2018-12-08T02:27:37.425Z,98889.00
2018-12-08T02:30:06.147Z,98898.00
2018-12-08T02:32:34.441Z,98907.00
2018-12-08T02:35:02.709Z,98892.00
2018-12-08T02:37:30.868Z,98907.00
2018-12-08T02:39:59.065Z,98915.00
2018-12-08T02:42:27.271Z,98923.00
2018-12-08T02:44:55.555Z,98927.00
2018-12-08T02:47:23.783Z,98937.00
2018-12-08T02:49:52.003Z,98938.00
2018-12-08T02:52:20.189Z,98931.00
2018-12-08T02:54:48.398Z,98933.00
2018-12-08T02:57:16.680Z,98953.00
2018-12-08T02:59:44.850Z,98950.00
2018-12-08T03:02:13.635Z,98960.00
2018-12-08T03:04:41.792Z,98966.00
2018-12-08T03:07:09.980Z,98967.00
2018-12-08T03:09:38.131Z,98968.00
2018-12-08T03:12:06.389Z,98972.00
2018-12-08T03:14:34.804Z,98977.00
2018-12-08T03:17:02.981Z,98969.00
2018-12-08T03:19:31.257Z,98960.00
2018-12-08T03:21:59.447Z,98967.00
2018-12-08T03:24:27.708Z,98973.00
2018-12-08T03:26:56.088Z,98977.00
2018-12-08T03:29:24.285Z,98989.00
2018-12-08T03:31:52.528Z,98993.00
2018-12-08T03:34:20.817Z,99013.00
2018-12-08T03:36:49.096Z,99012.00
2018-12-08T03:39:17.293Z,99035.00
2018-12-08T03:41:45.521Z,99056.00
2018-12-08T03:44:13.814Z,99069.00
2018-12-08T03:46:42.111Z,99077.00
2018-12-08T03:49:10.371Z,99085.00
2018-12-08T03:51:38.639Z,99104.00
2018-12-08T03:54:06.907Z,99120.00
2018-12-08T03:56:35.089Z,99141.00
2018-12-08T03:59:03.358Z,99142.00
2018-12-08T04:01:31.642Z,99136.00
2018-12-08T04:03:59.920Z,99149.00
2018-12-08T04:06:28.193Z,99158.00
2018-12-08T04:08:56.386Z,99177.00
2018-12-08T04:11:24.635Z,99159.00
2018-12-08T04:13:52.810Z,99189.00
2018-12-08T04:16:21.089Z,99197.00
2018-12-08T04:18:49.245Z,99205.00
2018-12-08T04:21:17.431Z,99220.00
2018-12-08T04:23:45.664Z,99222.00
2018-12-08T04:26:13.885Z,99226.00
2018-12-08T04:28:42.143Z,99233.00
2018-12-08T04:31:10.388Z,99237.00
2018-12-08T04:33:38.609Z,99243.00
2018-12-08T04:36:06.886Z,99249.00
2018-12-08T04:38:35.156Z,99244.00
2018-12-08T04:41:03.438Z,99251.00
2018-12-08T04:43:32.308Z,99254.00
2018-12-08T04:46:00.653Z,99271.00
2018-12-08T04:48:28.974Z,99262.00
2018-12-08T04:50:57.241Z,99283.00
2018-12-08T04:53:25.536Z,99279.00
2018-12-08T04:55:53.693Z,99292.00
2018-12-08T04:58:21.887Z,99292.00
2018-12-08T05:00:50.457Z,99299.00
2018-12-08T05:03:18.740Z,99309.00
2018-12-08T05:05:46.916Z,99324.00
2018-12-08T05:08:15.190Z,99327.00
2018-12-08T05:10:43.379Z,99347.00
2018-12-08T05:13:11.626Z,99335.00
2018-12-08T05:15:39.904Z,99345.00
2018-12-08T05:18:08.089Z,99353.00
2018-12-08T05:20:36.359Z,99355.00
2018-12-08T05:23:04.521Z,99353.00
2018-12-08T05:25:32.786Z,99352.00
2018-12-08T05:28:01.089Z,99378.00
2018-12-08T05:30:29.862Z,99373.00
2018-12-08T05:32:58.153Z,99375.00
2018-12-08T05:35:26.294Z,99373.00
2018-12-08T05:37:54.588Z,99388.00
2018-12-08T05:40:22.844Z,99388.00
2018-12-08T05:42:51.019Z,99394.00
2018-12-08T05:45:19.272Z,99403.00
2018-12-08T05:47:47.492Z,99415.00
2018-12-08T05:50:15.674Z,99419.00
2018-12-08T05:52:43.931Z,99418.00
2018-12-08T05:55:12.142Z,99426.00
2018-12-08T05:57:40.385Z,99447.00
2018-12-08T06:00:08.872Z,99439.00
2018-12-08T06:02:37.142Z,99445.00
2018-12-08T06:05:06.643Z,99454.00
2018-12-08T06:07:34.911Z,99449.00
2018-12-08T06:10:04.011Z,99468.00
2018-12-08T06:12:32.297Z,99465.00
2018-12-08T06:15:00.477Z,99472.00
2018-12-08T06:17:28.932Z,99468.00
2018-12-08T06:19:57.129Z,99468.00
2018-12-08T06:22:25.329Z,99483.00
2018-12-08T06:24:53.585Z,99484.00
2018-12-08T06:27:23.277Z,99500.00
2018-12-08T06:29:51.667Z,99493.00
2018-12-08T06:32:19.856Z,99506.00
2018-12-08T06:34:48.007Z,99508.00
2018-12-08T06:37:16.199Z,99520.00
2018-12-08T06:39:44.469Z,99524.00
2018-12-08T06:42:12.685Z,99519.00
2018-12-08T06:44:40.907Z,99528.00
2018-12-08T06:47:09.189Z,99531.00
2018-12-08T06:49:37.478Z,99527.00
2018-12-08T06:52:05.684Z,99523.00
2018-12-08T06:54:33.890Z,99531.00
2018-12-08T06:57:02.189Z,99543.00
2018-12-08T06:59:30.444Z,99541.00
2018-12-08T07:01:58.720Z,99552.00
2018-12-08T07:04:26.918Z,99545.00
2018-12-08T07:06:55.233Z,99546.00
2018-12-08T07:09:23.397Z,99557.00
2018-12-08T07:11:52.444Z,99578.00
2018-12-08T07:14:20.724Z,99571.00
2018-12-08T07:16:49.782Z,99565.00
2018-12-08T07:19:17.975Z,99575.00
2018-12-08T07:21:46.441Z,99575.00
2018-12-08T07:24:15.315Z,99580.00
2018-12-08T07:26:43.540Z,99573.00
2018-12-08T07:29:11.818Z,99572.00
2018-12-08T07:31:40.122Z,99589.00
2018-12-08T07:34:08.313Z,99570.00
2018-12-08T07:36:36.545Z,99575.00
2018-12-08T07:39:06.532Z,99564.00
2018-12-08T07:41:34.697Z,99556.00
2018-12-08T07:44:03.000Z,99547.00
2018-12-08T07:46:31.188Z,99571.00
2018-12-08T07:48:59.369Z,99575.00
2018-12-08T07:51:27.688Z,99578.00
2018-12-08T07:53:56.002Z,99584.00
2018-12-08T07:56:24.284Z,99586.00
2018-12-08T07:58:52.530Z,99604.00
2018-12-08T08:01:20.697Z,99596.00
2018-12-08T08:03:48.960Z,99594.00
2018-12-08T08:06:17.175Z,99595.00
2018-12-08T08:08:45.369Z,99594.00
2018-12-08T08:11:13.620Z,99598.00
2018-12-08T08:13:41.829Z,99588.00
2018-12-08T08:16:10.107Z,99589.00
2018-12-08T08:18:38.339Z,99594.00
2018-12-08T08:21:06.628Z,99590.00
2018-12-08T08:23:34.787Z,99593.00
2018-12-08T08:26:02.993Z,99588.00
2018-12-08T08:28:31.251Z,99598.00
2018-12-08T08:30:59.530Z,99601.00
2018-12-08T08:33:27.789Z,99598.00
2018-12-08T08:35:56.020Z,99593.00
2018-12-08T08:38:24.337Z,99596.00
2018-12-08T08:40:52.723Z,99601.00
2018-12-08T08:43:20.893Z,99595.00
2018-12-08T08:45:49.084Z,99595.00
2018-12-08T08:48:17.442Z,99595.00
2018-12-08T08:50:46.333Z,99598.00
2018-12-08T08:53:14.627Z,99603.00
2018-12-08T08:55:42.799Z,99587.00
2018-12-08T08:58:11.582Z,99593.00
2018-12-08T09:00:39.799Z,99585.00
2018-12-08T09:03:08.019Z,99593.00
2018-12-08T09:05:36.211Z,99585.00
2018-12-08T09:08:05.295Z,99597.00
2018-12-08T09:10:33.470Z,99588.00
2018-12-08T09:13:01.749Z,99591.00
2018-12-08T09:15:29.940Z,99593.00
2018-12-08T09:17:58.197Z,99591.00
2018-12-08T09:20:26.478Z,99587.00
2018-12-08T09:22:54.745Z,99587.00
2018-12-08T09:25:23.032Z,99582.00
2018-12-08T09:27:51.314Z,99583.00
2018-12-08T09:30:19.524Z,99587.00
2018-12-08T09:32:47.670Z,99578.00
2018-12-08T09:35:15.973Z,99570.00
2018-12-08T09:37:44.144Z,99556.00
2018-12-08T09:40:12.360Z,99561.00
2018-12-08T09:42:40.573Z,99566.00
2018-12-08T09:45:09.280Z,99561.00
2018-12-08T09:47:37.492Z,99556.00
2018-12-08T09:50:06.463Z,99549.00
2018-12-08T09:52:34.627Z,99546.00
2018-12-08T09:55:02.823Z,99547.00
2018-12-08T09:57:31.104Z,99541.00
2018-12-08T09:59:59.278Z,99537.00
2018-12-08T10:02:27.557Z,99532.00
2018-12-08T10:04:55.841Z,99532.00
2018-12-08T10:07:24.012Z,99540.00
2018-12-08T10:09:52.304Z,99534.00
2018-12-08T10:12:20.566Z,99535.00
2018-12-08T10:14:48.831Z,99522.00
2018-12-08T10:17:17.054Z,99521.00
2018-12-08T10:19:45.286Z,99515.00
2018-12-08T10:22:13.479Z,99509.00
2018-12-08T10:24:41.737Z,99506.00
2018-12-08T10:27:27.070Z,99502.00
2018-12-08T10:29:55.484Z,99495.00
2018-12-08T10:32:23.750Z,99495.00
2018-12-08T10:34:51.948Z,99490.00
2018-12-08T10:37:20.215Z,99484.00
2018-12-08T10:39:48.385Z,99481.00
2018-12-08T10:42:16.793Z,99478.00
2018-12-08T10:44:45.115Z,99472.00
2018-12-08T10:47:13.574Z,99455.00
2018-12-08T10:49:41.795Z,99458.00
2018-12-08T10:52:10.009Z,99461.00
2018-12-08T10:54:38.710Z,99452.00
2018-12-08T10:57:07.136Z,99456.00
2018-12-08T10:59:35.404Z,99456.00
2018-12-08T11:02:03.753Z,99471.00
2018-12-08T11:04:32.099Z,99443.00
2018-12-08T11:07:00.336Z,99447.00
2018-12-08T11:09:28.616Z,99452.00
2018-12-08T11:11:56.955Z,99456.00
2018-12-08T11:14:25.179Z,99442.00
2018-12-08T11:16:53.439Z,99460.00
2018-12-08T11:19:21.751Z,99446.00
2018-12-08T11:21:50.233Z,99450.00
2018-12-08T11:24:18.447Z,99455.00
2018-12-08T11:26:47.001Z,99449.00
2018-12-08T11:29:15.166Z,99449.00
2018-12-08T11:31:43.324Z,99442.00
2018-12-08T11:34:11.571Z,99444.00
2018-12-08T11:36:39.723Z,99437.00
2018-12-08T11:39:07.935Z,99435.00
2018-12-08T11:41:38.101Z,99436.00
2018-12-08T11:44:06.344Z,99438.00
2018-12-08T11:46:34.799Z,99444.00
2018-12-08T11:49:03.165Z,99433.00
2018-12-08T11:51:31.325Z,99434.00
2018-12-08T11:53:59.733Z,99431.00
2018-12-08T11:56:27.896Z,99433.00
2018-12-08T11:58:56.044Z,99431.00
2018-12-08T12:01:24.497Z,99414.00
2018-12-08T12:03:52.869Z,99418.00
2018-12-08T12:06:21.056Z,99424.00
2018-12-08T12:08:49.284Z,99428.00
2018-12-08T12:11:17.764Z,99426.00
2018-12-08T12:13:45.999Z,99411.00
2018-12-08T12:16:14.391Z,99423.00
2018-12-08T12:18:42.555Z,99423.00
2018-12-08T12:21:10.742Z,99428.00
2018-12-08T12:23:38.945Z,99420.00
2018-12-08T12:26:07.228Z,99424.00
2018-12-08T12:28:35.420Z,99413.00
2018-12-08T12:31:03.653Z,99413.00
2018-12-08T12:33:31.796Z,99411.00
2018-12-08T12:35:59.954Z,99407.00
2018-12-08T12:38:28.145Z,99402.00
2018-12-08T12:40:56.449Z,99397.00
2018-12-08T12:43:25.612Z,99403.00
2018-12-08T12:45:54.569Z,99394.00
2018-12-08T12:48:22.741Z,99390.00
2018-12-08T12:50:51.014Z,99392.00
2018-12-08T12:53:21.157Z,99388.00
2018-12-08T12:55:49.333Z,99389.00
2018-12-08T12:58:17.512Z,99389.00
2018-12-08T13:00:45.726Z,99386.00
2018-12-08T13:03:14.089Z,99398.00
2018-12-08T13:05:42.256Z,99388.00
2018-12-08T13:08:10.425Z,99398.00
2018-12-08T13:10:38.611Z,99391.00
2018-12-08T13:13:06.849Z,99389.00
2018-12-08T13:15:35.077Z,99391.00
2018-12-08T13:18:03.275Z,99388.00
2018-12-08T13:20:31.426Z,99393.00
2018-12-08T13:22:59.601Z,99388.00
2018-12-08T13:25:27.846Z,99394.00
2018-12-08T13:27:56.009Z,99383.00
2018-12-08T13:30:24.204Z,99388.00
2018-12-08T13:32:52.386Z,99385.00
2018-12-08T13:38:30.060Z,99378.00
2018-12-08T13:40:58.276Z,99377.00
2018-12-08T13:43:26.556Z,99385.00
2018-12-08T13:45:54.733Z,99373.00
2018-12-08T13:48:23.629Z,99366.00
2018-12-08T13:50:52.223Z,99373.00
2018-12-08T13:53:20.502Z,99377.00
2018-12-08T13:55:48.791Z,99371.00
2018-12-08T13:58:16.985Z,99359.00
2018-12-08T14:00:45.244Z,99362.00
2018-12-08T14:03:13.416Z,99358.00
2018-12-08T14:05:41.592Z,99360.00
2018-12-08T14:08:09.853Z,99355.00
2018-12-08T14:10:38.031Z,99355.00
2018-12-08T14:13:06.296Z,99360.00
2018-12-08T14:15:34.521Z,99356.00
2018-12-08T14:18:02.690Z,99349.00
2018-12-08T14:20:31.018Z,99357.00
2018-12-08T14:22:59.369Z,99357.00
2018-12-08T14:25:27.645Z,99359.00
2018-12-08T14:27:56.201Z,99359.00
2018-12-08T14:30:24.381Z,99365.00
2018-12-08T14:32:52.581Z,99366.00
2018-12-08T14:35:20.727Z,99370.00
2018-12-08T14:37:48.920Z,99371.00
2018-12-08T14:40:17.089Z,99377.00
2018-12-08T14:42:45.352Z,99369.00
2018-12-08T14:45:13.705Z,99375.00
2018-12-08T14:47:41.878Z,99376.00
2018-12-08T14:50:10.428Z,99371.00
2018-12-08T14:52:38.653Z,99369.00
2018-12-08T14:55:07.244Z,99368.00
2018-12-08T14:57:35.468Z,99364.00
2018-12-08T15:00:05.093Z,99372.00
2018-12-08T15:02:33.341Z,99348.00
2018-12-08T15:05:01.592Z,99349.00
2018-12-08T15:07:29.882Z,99352.00
2018-12-08T15:09:58.137Z,99352.00
2018-12-08T15:12:26.342Z,99365.00
2018-12-08T15:14:54.509Z,99357.00
2018-12-08T15:17:22.764Z,99353.00
2018-12-08T15:19:50.933Z,99355.00
2018-12-08T15:22:19.163Z,99352.00
2018-12-08T15:24:47.351Z,99343.00
2018-12-08T15:27:17.459Z,99344.00
2018-12-08T15:29:45.797Z,99340.00
2018-12-08T15:32:13.983Z,99339.00
2018-12-08T15:34:42.156Z,99338.00
2018-12-08T15:37:10.426Z,99336.00
2018-12-08T15:39:38.633Z,99339.00
2018-12-08T15:42:06.906Z,99325.00
2018-12-08T15:44:35.178Z,99337.00
2018-12-08T15:47:03.387Z,99329.00
2018-12-08T15:49:31.856Z,99326.00
2018-12-08T15:52:00.020Z,99325.00
2018-12-08T15:54:28.293Z,99330.00
2018-12-08T15:56:56.681Z,99329.00
2018-12-08T15:59:24.836Z,99329.00
2018-12-08T16:01:53.146Z,99330.00
2018-12-08T16:04:21.413Z,99328.00
2018-12-08T16:06:50.545Z,99324.00
2018-12-08T16:09:18.780Z,99326.00
2018-12-08T16:11:46.969Z,99320.00
2018-12-08T16:14:15.140Z,99324.00
2018-12-08T16:16:43.385Z,99336.00
2018-12-08T16:19:11.707Z,99320.00
2018-12-08T16:21:39.942Z,99326.00
2018-12-08T16:24:08.150Z,99323.00
2018-12-08T16:26:36.407Z,99327.00
2018-12-08T16:29:04.674Z,99326.00
2018-12-08T16:31:32.852Z,99323.00
2018-12-08T16:34:01.078Z,99326.00
2018-12-08T16:36:29.308Z,99320.00
2018-12-08T16:38:57.467Z,99314.00
2018-12-08T16:41:25.661Z,99325.00
2018-12-08T16:43:53.835Z,99312.00
2018-12-08T16:46:22.141Z,99300.00
2018-12-08T16:48:50.300Z,99317.00
2018-12-08T16:51:18.568Z,99300.00
2018-12-08T16:53:46.801Z,99297.00
2018-12-08T16:56:16.231Z,99296.00
2018-12-08T16:58:44.715Z,99284.00
2018-12-08T17:01:12.921Z,99294.00
2018-12-08T17:03:41.439Z,99287.00
2018-12-08T17:06:09.774Z,99288.00
2018-12-08T17:08:38.009Z,99285.00
2018-12-08T17:11:06.172Z,99287.00
2018-12-08T17:13:34.403Z,99285.00
2018-12-08T17:16:02.692Z,99289.00
2018-12-08T17:18:31.113Z,99282.00
2018-12-08T17:20:59.370Z,99287.00
2018-12-08T17:23:27.538Z,99279.00
2018-12-08T17:25:55.866Z,99285.00
2018-12-08T17:28:24.062Z,99282.00
2018-12-08T17:30:52.264Z,99274.00
2018-12-08T17:33:20.551Z,99275.00
2018-12-08T17:35:48.712Z,99282.00
2018-12-08T17:38:16.888Z,99278.00
2018-12-08T17:40:45.043Z,99280.00
2018-12-08T17:43:13.243Z,99269.00
2018-12-08T17:45:41.454Z,99266.00
2018-12-08T17:48:09.641Z,99259.00
2018-12-08T17:50:37.851Z,99262.00
2018-12-08T17:53:06.108Z,99263.00
2018-12-08T17:55:35.085Z,99259.00
2018-12-08T17:58:03.247Z,99268.00
2018-12-08T18:00:31.509Z,99269.00
2018-12-08T18:02:59.910Z,99262.00
2018-12-08T18:05:28.079Z,99260.00
2018-12-08T18:07:56.335Z,99271.00
2018-12-08T18:10:24.598Z,99267.00
2018-12-08T18:12:52.775Z,99253.00
2018-12-08T18:15:21.074Z,99257.00
2018-12-08T18:17:49.243Z,99260.00
2018-12-08T18:20:17.404Z,99254.00
2018-12-08T18:22:58.967Z,99256.00
2018-12-08T18:25:27.194Z,99259.00
2018-12-08T18:27:55.852Z,99259.00
2018-12-08T18:30:24.063Z,99263.00
2018-12-08T18:32:52.309Z,99264.00
2018-12-08T18:35:20.480Z,99265.00
2018-12-08T18:37:48.710Z,99262.00
2018-12-08T18:40:17.605Z,99261.00
2018-12-08T18:42:45.815Z,99255.00
2018-12-08T18:45:14.066Z,99261.00
2018-12-08T18:47:42.480Z,99266.00
2018-12-08T18:50:10.724Z,99267.00
2018-12-08T18:52:38.916Z,99273.00
2018-12-08T18:55:07.190Z,99266.00
2018-12-08T18:57:35.383Z,99266.00
2018-12-08T19:00:06.328Z,99268.00
2018-12-08T19:02:34.500Z,99260.00
2018-12-08T19:05:02.661Z,99264.00
2018-12-08T19:07:30.996Z,99263.00
2018-12-08T19:09:59.196Z,99262.00
2018-12-08T19:12:27.408Z,99261.00
2018-12-08T19:14:56.365Z,99254.00
2018-12-08T19:17:24.534Z,99251.00
2018-12-08T19:19:52.728Z,99247.00
2018-12-08T19:22:21.097Z,99245.00
2018-12-08T19:24:49.487Z,99235.00
2018-12-08T19:27:17.766Z,99237.00
2018-12-08T19:29:46.086Z,99235.00
2018-12-08T19:32:14.253Z,99234.00
2018-12-08T19:34:42.489Z,99236.00
2018-12-08T19:37:10.723Z,99234.00
2018-12-08T19:39:39.645Z,99238.00
2018-12-08T19:42:07.916Z,99235.00
2018-12-08T19:44:36.424Z,99230.00
2018-12-08T19:47:08.949Z,99226.00
2018-12-08T19:49:37.329Z,99231.00
2018-12-08T19:52:05.785Z,99225.00
2018-12-08T19:54:34.010Z,99220.00
2018-12-08T19:57:02.795Z,99223.00
2018-12-08T19:59:31.310Z,99223.00
2018-12-08T20:01:59.484Z,99213.00
2018-12-08T20:04:27.723Z,99210.00
2018-12-08T20:06:55.889Z,99215.00
2018-12-08T20:09:24.057Z,99204.00
2018-12-08T20:11:52.299Z,99207.00
2018-12-08T20:14:20.472Z,99211.00
2018-12-08T20:16:49.368Z,99206.00
2018-12-08T20:19:19.216Z,99218.00
2018-12-08T20:21:53.325Z,99212.00
2018-12-08T20:24:35.802Z,99201.00
2018-12-08T20:27:09.518Z,99197.00
2018-12-08T20:29:38.444Z,99199.00
2018-12-08T20:32:07.383Z,99189.00
2018-12-08T20:34:35.659Z,99196.00
2018-12-08T20:37:03.934Z,99198.00
2018-12-08T20:39:32.224Z,99193.00
2018-12-08T20:42:00.542Z,99184.00
2018-12-08T20:44:28.763Z,99185.00
2018-12-08T20:46:57.025Z,99180.00
2018-12-08T20:49:25.335Z,99175.00
2018-12-08T20:51:53.516Z,99177.00
2018-12-08T20:54:21.801Z,99181.00
2018-12-08T20:56:49.966Z,99169.00
2018-12-08T20:59:18.934Z,99174.00
2018-12-08T21:01:47.223Z,99171.00
2018-12-08T21:04:15.421Z,99162.00
2018-12-08T21:06:43.589Z,99157.00
2018-12-08T21:09:11.778Z,99160.00
2018-12-08T21:11:40.065Z,99153.00
2018-12-08T21:14:08.409Z,99147.00
2018-12-08T21:16:36.576Z,99150.00
2018-12-08T21:19:04.759Z,99142.00
2018-12-08T21:21:33.002Z,99144.00
2018-12-08T21:24:01.209Z,99139.00
2018-12-08T21:26:29.823Z,99133.00
2018-12-08T21:28:58.088Z,99133.00
2018-12-08T21:31:27.021Z,99123.00
2018-12-08T21:33:55.262Z,99116.00
2018-12-08T21:36:23.533Z,99107.00
2018-12-08T21:38:51.789Z,99101.00
2018-12-08T21:41:19.964Z,99109.00
2018-12-08T21:43:48.143Z,99119.00
2018-12-08T21:46:16.361Z,99106.00
2018-12-08T21:48:44.595Z,99106.00
2018-12-08T21:51:12.759Z,99110.00
2018-12-08T21:53:41.150Z,99103.00
2018-12-08T21:56:09.312Z,99107.00
2018-12-08T21:58:37.494Z,99105.00
2018-12-08T22:01:05.793Z,99092.00
2018-12-08T22:03:33.998Z,99095.00
2018-12-08T22:06:02.177Z,99085.00
2018-12-08T22:08:30.597Z,99086.00
2018-12-08T22:10:58.761Z,99082.00
2018-12-08T22:13:27.864Z,99078.00
2018-12-08T22:15:56.083Z,99063.00
2018-12-08T22:18:24.260Z,99067.00
2018-12-08T22:20:52.469Z,99061.00
2018-12-08T22:23:20.655Z,99059.00
2018-12-08T22:25:48.825Z,99057.00
2018-12-08T22:28:17.005Z,99059.00
2018-12-08T22:30:45.255Z,99056.00
2018-12-08T22:33:13.424Z,99056.00
2018-12-08T22:35:41.639Z,99056.00
2018-12-08T22:38:09.832Z,99043.00
2018-12-08T22:40:38.005Z,99038.00
2018-12-08T22:43:06.168Z,99041.00
2018-12-08T22:45:34.368Z,99033.00
2018-12-08T22:48:02.581Z,99043.00
2018-12-08T22:50:31.338Z,99033.00
2018-12-08T22:52:59.528Z,99028.00
2018-12-08T22:55:27.954Z,99026.00
2018-12-08T22:57:56.149Z,99026.00
2018-12-08T23:00:42.231Z,99016.00
2018-12-08T23:03:10.585Z,99016.00
2018-12-08T23:05:38.838Z,99008.00
2018-12-08T23:08:07.080Z,99002.00
2018-12-08T23:10:35.896Z,99014.00
2018-12-08T23:13:04.144Z,99003.00
2018-12-08T23:15:32.460Z,99000.00
2018-12-08T23:18:00.792Z,98999.00
2018-12-08T23:20:29.014Z,98996.00
2018-12-08T23:22:57.278Z,98998.00
2018-12-08T23:25:25.494Z,98987.00
2018-12-08T23:27:53.742Z,98992.00
2018-12-08T23:30:22.002Z,98988.00
2018-12-08T23:32:50.289Z,98976.00
2018-12-08T23:35:18.553Z,98969.00
2018-12-08T23:37:46.937Z,98968.00
2018-12-08T23:40:15.229Z,98968.00
2018-12-08T23:42:43.469Z,98965.00
2018-12-08T23:45:11.768Z,98954.00
2018-12-08T23:47:39.970Z,98952.00
2018-12-08T23:50:08.334Z,98938.00
2018-12-08T23:52:36.594Z,98943.00
2018-12-08T23:55:05.376Z,98934.00
2018-12-08T23:57:33.760Z,98922.00
